Time;durP1;ratioP1;P1;durP2;ratioP2;P2;SDS_P1;SDS_P2;PMS_P1;PMS_P2;Temp;Humidity;BMP_temperature;BMP_pressure;BME280_temperature;BME280_humidity;BME280_pressure;Samples;Min_cycle;Max_cycle;Signal;HPM_P1;HPM_P2
2021/10/24 00:00:19;;;;;;;8.40;4.20;;;;;;;5.43;73.02;97918.89;115505;1192;27325;-90
2021/10/24 00:03:07;;;;;;;12.40;4.70;;;;;;;5.41;73.28;97921.70;115294;1200;38509;-90
2021/10/24 00:05:35;;;;;;;9.50;3.90;;;;;;;5.40;73.22;97919.81;115409;1199;26363;-90
2021/10/24 00:08:03;;;;;;;8.40;3.00;;;;;;;5.36;73.33;97924.98;115471;1198;25123;-90
2021/10/24 00:10:31;;;;;;;9.80;3.80;;;;;;;5.32;73.40;97927.61;115426;1193;25252;-91
2021/10/24 00:12:59;;;;;;;11.90;3.70;;;;;;;5.29;73.50;97932.09;115455;1199;25084;-90
2021/10/24 00:15:27;;;;;;;9.50;3.40;;;;;;;5.26;73.65;97934.38;115418;1199;28770;-90
2021/10/24 00:17:55;;;;;;;10.70;3.70;;;;;;;5.26;73.60;97939.19;115422;1199;27317;-90
2021/10/24 00:20:24;;;;;;;9.10;4.00;;;;;;;5.25;73.73;97942.42;115420;1197;35074;-89
2021/10/24 00:22:52;;;;;;;7.50;3.30;;;;;;;5.27;73.67;97946.21;115525;1198;26395;-90
2021/10/24 00:25:20;;;;;;;10.80;3.80;;;;;;;5.28;73.79;97949.36;115423;1197;27348;-89
2021/10/24 00:27:48;;;;;;;9.40;3.70;;;;;;;5.28;73.83;97951.71;115489;1199;26543;-90
2021/10/24 00:30:17;;;;;;;13.50;4.20;;;;;;;5.26;73.80;97950.66;115480;1198;24830;-90
2021/10/24 00:32:45;;;;;;;9.00;3.90;;;;;;;5.26;74.10;97954.96;115495;1198;27146;-90
2021/10/24 00:35:13;;;;;;;7.90;4.00;;;;;;;5.26;74.02;97951.88;115473;1197;26707;-88
2021/10/24 00:37:41;;;;;;;9.70;3.90;;;;;;;5.29;73.97;97953.33;115491;1192;27015;-90
2021/10/24 00:40:11;;;;;;;11.00;3.70;;;;;;;5.31;73.94;97958.23;115468;1199;27063;-90
2021/10/24 00:42:51;;;;;;;8.70;3.50;;;;;;;5.32;73.99;97953.21;115451;1198;27146;-88
2021/10/24 00:45:19;;;;;;;10.90;4.80;;;;;;;5.33;73.94;97951.88;115583;1198;26126;-90
2021/10/24 00:47:47;;;;;;;9.50;3.50;;;;;;;5.32;73.83;97952.27;115496;1198;27245;-90
2021/10/24 00:50:16;;;;;;;12.30;4.70;;;;;;;5.31;73.94;97954.23;115546;1198;28635;-89
2021/10/24 00:52:45;;;;;;;7.20;3.50;;;;;;;5.27;74.06;97956.26;115467;1199;25849;-89
2021/10/24 00:55:14;;;;;;;13.30;3.80;;;;;;;5.23;74.20;97955.07;115411;1199;27745;-89
2021/10/24 00:57:43;;;;;;;8.40;3.50;;;;;;;5.19;74.08;97949.94;115443;1199;28203;-90
2021/10/24 01:00:14;;;;;;;6.30;3.30;;;;;;;5.17;74.37;97952.70;115432;1199;29389;-89
2021/10/24 01:02:43;;;;;;;11.30;4.10;;;;;;;5.16;74.29;97947.05;115423;1192;26887;-90
2021/10/24 01:05:13;;;;;;;11.10;4.40;;;;;;;5.12;74.20;97950.23;115459;1198;28345;-90
2021/10/24 01:07:44;;;;;;;8.40;3.50;;;;;;;5.07;74.30;97948.27;115486;1198;31869;-88
2021/10/24 01:10:15;;;;;;;8.10;3.90;;;;;;;5.03;74.51;97952.89;115465;1198;26056;-89
2021/10/24 01:12:44;;;;;;;7.30;3.50;;;;;;;4.99;74.87;97954.56;115559;1192;25751;-89
2021/10/24 01:15:13;;;;;;;8.50;3.90;;;;;;;4.97;74.81;97956.84;115278;1199;25888;-89
2021/10/24 01:17:41;;;;;;;7.40;4.00;;;;;;;4.95;74.99;97953.42;115391;1199;28047;-90
2021/10/24 01:20:15;;;;;;;12.30;3.90;;;;;;;4.96;75.03;97951.71;115505;1192;26987;-89
2021/10/24 01:22:43;;;;;;;7.00;4.10;;;;;;;4.99;75.04;97953.65;115513;1198;25503;-89
2021/10/24 01:25:11;;;;;;;11.30;4.60;;;;;;;4.99;75.20;97962.08;115373;1200;27211;-89
2021/10/24 01:27:39;;;;;;;9.30;4.30;;;;;;;5.02;75.08;97965.83;115500;1198;28026;-89
2021/10/24 01:30:09;;;;;;;6.90;3.40;;;;;;;5.02;75.23;97968.17;115473;1198;26304;-88
2021/10/24 01:32:37;;;;;;;5.60;3.00;;;;;;;5.04;75.17;97973.63;115408;1199;27039;-88
2021/10/24 01:35:08;;;;;;;9.70;3.70;;;;;;;5.07;75.10;97973.73;115503;1198;29331;-88
2021/10/24 01:37:39;;;;;;;9.10;3.60;;;;;;;5.11;75.05;97978.83;115463;1199;31129;-88
2021/10/24 01:40:10;;;;;;;10.10;4.10;;;;;;;5.12;74.87;97978.77;115469;1199;29285;-89
2021/10/24 01:42:48;;;;;;;8.80;4.00;;;;;;;5.17;74.86;97977.93;115517;1198;26608;-89
2021/10/24 01:45:18;;;;;;;8.10;3.90;;;;;;;5.20;74.86;97979.94;115462;1192;25694;-89
2021/10/24 01:47:46;;;;;;;;;;;;;;;5.23;74.90;97976.38;115422;1199;26219;-90
2021/10/24 01:50:14;;;;;;;11.30;4.10;;;;;;;5.22;75.00;97983.55;115460;1186;26791;-89
2021/10/24 01:52:44;;;;;;;6.50;3.40;;;;;;;5.20;74.97;97988.31;115410;1199;30802;-90
2021/10/24 01:55:13;;;;;;;12.50;4.20;;;;;;;5.21;74.82;97991.51;115467;1199;27642;-90
2021/10/24 01:57:44;;;;;;;10.00;3.90;;;;;;;5.23;74.90;97989.73;115431;1199;28508;-90
2021/10/24 02:00:15;;;;;;;8.00;3.60;;;;;;;5.25;75.06;97984.86;115474;1192;25741;-89
2021/10/24 02:02:43;;;;;;;11.40;4.20;;;;;;;5.23;75.09;97991.14;115418;1199;26748;-89
2021/10/24 02:05:11;;;;;;;11.50;3.90;;;;;;;5.22;75.19;97988.00;115426;1199;30879;-88
2021/10/24 02:07:39;;;;;;;9.20;4.20;;;;;;;5.23;75.25;97988.84;115321;1200;28256;-88
2021/10/24 02:10:10;;;;;;;11.40;4.20;;;;;;;5.23;75.33;97990.13;115421;1192;29225;-90
2021/10/24 02:12:39;;;;;;;10.60;4.60;;;;;;;5.21;75.40;97995.80;115407;1199;27501;-89
2021/10/24 02:15:10;;;;;;;15.30;5.30;;;;;;;5.21;75.38;98001.55;115438;1192;29023;-90
2021/10/24 02:17:38;;;;;;;7.50;3.60;;;;;;;5.23;75.46;97998.88;115421;1199;25186;-89
2021/10/24 02:20:08;;;;;;;10.80;4.30;;;;;;;5.26;75.49;97997.02;115426;1199;27202;-89
2021/10/24 02:22:37;;;;;;;8.40;3.80;;;;;;;5.28;75.36;97994.63;115403;1198;27342;-89
2021/10/24 02:25:07;;;;;;;10.30;4.40;;;;;;;5.30;75.40;97993.64;115424;1198;27612;-90
2021/10/24 02:27:35;;;;;;;12.60;4.50;;;;;;;5.31;75.36;97985.59;115478;1192;30524;-90
2021/10/24 02:30:04;;;;;;;10.80;4.70;;;;;;;5.31;75.45;97981.90;115482;1198;25975;-89
2021/10/24 02:32:32;;;;;;;10.40;4.00;;;;;;;5.30;75.50;97988.05;115502;1192;34406;-89
2021/10/24 02:35:00;;;;;;;10.70;4.50;;;;;;;5.29;75.39;97989.36;115491;1199;28681;-89
2021/10/24 02:37:29;;;;;;;11.00;4.40;;;;;;;5.30;75.49;97985.07;115452;1198;26302;-89
2021/10/24 02:39:57;;;;;;;9.00;4.40;;;;;;;5.34;75.47;97982.61;115478;1199;26604;-90
2021/10/24 02:42:25;;;;;;;10.90;4.60;;;;;;;5.33;75.34;97983.18;115452;1199;26069;-89
2021/10/24 02:44:53;;;;;;;7.70;3.80;;;;;;;5.33;75.52;97990.55;115460;1199;27062;-86
2021/10/24 02:47:21;;;;;;;12.20;4.60;;;;;;;5.35;75.41;97998.08;115421;1199;24543;-90
2021/10/24 02:49:50;;;;;;;7.20;3.60;;;;;;;5.34;75.48;97993.21;115421;1199;26922;-90
2021/10/24 02:52:18;;;;;;;8.50;4.40;;;;;;;5.36;75.40;97999.77;115451;1192;26998;-89
2021/10/24 02:54:47;;;;;;;10.00;4.40;;;;;;;5.39;75.61;97996.60;115475;1195;39169;-90
2021/10/24 02:57:15;;;;;;;6.30;4.00;;;;;;;5.40;75.49;97995.70;115462;1196;44835;-88
2021/10/24 02:59:43;;;;;;;8.70;4.00;;;;;;;5.38;75.66;97993.86;115479;1198;27606;-90
2021/10/24 03:02:11;;;;;;;7.10;3.90;;;;;;;5.35;75.60;97992.02;115499;1192;26302;-90
2021/10/24 03:04:39;;;;;;;10.50;4.60;;;;;;;5.35;75.69;97995.85;115355;1193;28143;-89
2021/10/24 03:07:07;;;;;;;9.90;4.30;;;;;;;5.34;75.62;98000.73;115452;1199;26329;-90
2021/10/24 03:09:35;;;;;;;12.10;4.30;;;;;;;5.32;75.63;98003.09;115495;1198;27914;-89
2021/10/24 03:12:03;;;;;;;13.20;4.50;;;;;;;5.32;75.69;98008.63;115484;1199;29125;-90
2021/10/24 03:14:32;;;;;;;12.40;4.70;;;;;;;5.29;75.86;98005.90;115490;1199;27367;-88
2021/10/24 03:17:00;;;;;;;11.30;4.60;;;;;;;5.25;76.03;98010.67;115498;1198;31090;-90
2021/10/24 03:19:28;;;;;;;11.50;4.50;;;;;;;5.22;76.06;98022.14;115503;1198;24255;-90
2021/10/24 03:21:56;;;;;;;8.80;4.20;;;;;;;5.18;76.13;98020.55;115498;1198;27755;-90
2021/10/24 03:24:24;;;;;;;10.20;4.30;;;;;;;5.16;76.34;98017.49;115426;1192;25323;-90
2021/10/24 03:26:52;;;;;;;12.30;4.50;;;;;;;5.13;76.54;98019.25;115511;1198;28502;-90
2021/10/24 03:29:20;;;;;;;10.70;4.40;;;;;;;5.12;76.50;98015.77;115468;1198;27302;-89
2021/10/24 03:31:48;;;;;;;9.80;4.00;;;;;;;5.10;76.67;98016.60;115569;1198;25519;-89
2021/10/24 03:34:17;;;;;;;7.30;4.10;;;;;;;5.09;76.73;98021.45;115425;1199;25104;-90
2021/10/24 03:36:45;;;;;;;13.20;5.60;;;;;;;5.10;76.80;98020.32;115481;1199;26863;-90
2021/10/24 03:39:13;;;;;;;12.70;4.80;;;;;;;5.07;76.94;98026.10;115444;1199;27926;-89
2021/10/24 03:41:41;;;;;;;10.70;4.40;;;;;;;5.04;77.09;98016.27;115444;1199;28156;-90
2021/10/24 03:44:09;;;;;;;11.00;4.30;;;;;;;5.04;76.96;98011.50;115428;1199;26573;-89
2021/10/24 03:46:37;;;;;;;9.90;3.80;;;;;;;5.06;76.99;98019.87;115433;1199;29769;-89
2021/10/24 03:49:05;;;;;;;10.10;4.70;;;;;;;5.06;77.02;98019.51;115399;1199;29092;-90
2021/10/24 03:51:39;;;;;;;12.10;4.00;;;;;;;5.04;77.10;98020.64;115450;1199;26900;-89
2021/10/24 03:54:07;;;;;;;10.30;4.70;;;;;;;5.01;77.38;98019.25;115496;1199;23635;-89
2021/10/24 03:56:35;;;;;;;13.90;5.40;;;;;;;5.00;77.45;98018.29;115419;1199;27135;-92
2021/10/24 03:59:04;;;;;;;11.50;4.60;;;;;;;4.96;77.57;98019.27;115500;1199;28505;-90
2021/10/24 04:01:32;;;;;;;10.50;4.70;;;;;;;4.94;77.77;98023.16;115536;1198;26277;-89
2021/10/24 04:04:00;;;;;;;10.90;4.50;;;;;;;4.91;77.85;98026.19;115478;1198;26641;-90
2021/10/24 04:06:28;;;;;;;12.90;5.10;;;;;;;4.87;77.93;98029.27;115358;1198;25541;-89
2021/10/24 04:08:56;;;;;;;9.30;4.40;;;;;;;4.85;78.05;98029.48;115385;1199;33656;-88
2021/10/24 04:11:24;;;;;;;8.20;4.00;;;;;;;4.80;78.17;98027.09;115415;1199;43761;-89
2021/10/24 04:13:52;;;;;;;10.40;4.90;;;;;;;4.78;78.26;98028.42;115386;1199;25501;-89
2021/10/24 04:16:20;;;;;;;9.90;4.70;;;;;;;4.76;78.27;98025.17;115443;1199;27310;-89
2021/10/24 04:18:48;;;;;;;11.10;5.00;;;;;;;4.73;78.56;98023.94;115354;1199;27608;-88
2021/10/24 04:21:16;;;;;;;10.70;4.80;;;;;;;4.69;78.61;98021.40;115294;1200;26385;-88
2021/10/24 04:23:44;;;;;;;9.50;4.60;;;;;;;4.63;78.98;98020.23;115353;1199;26385;-88
2021/10/24 04:26:12;;;;;;;13.30;4.80;;;;;;;4.60;78.94;98029.10;115397;1198;25685;-88
2021/10/24 04:28:40;;;;;;;9.40;5.30;;;;;;;4.57;79.11;98031.61;115310;1200;28427;-89
2021/10/24 04:31:08;;;;;;;13.50;4.90;;;;;;;4.54;79.24;98036.40;115398;1199;27279;-89
2021/10/24 04:33:36;;;;;;;10.80;4.80;;;;;;;4.52;79.32;98039.27;115378;1199;29642;-88
2021/10/24 04:36:05;;;;;;;11.10;4.40;;;;;;;4.51;79.48;98038.34;115213;1200;26848;-89
2021/10/24 04:38:33;;;;;;;13.10;5.10;;;;;;;4.51;79.53;98035.42;115344;1199;34036;-89
2021/10/24 04:41:01;;;;;;;10.60;5.10;;;;;;;4.50;79.84;98035.89;115423;1199;31706;-89
2021/10/24 04:43:29;;;;;;;11.20;5.30;;;;;;;4.51;79.83;98046.98;115430;1191;26324;-89
2021/10/24 04:45:57;;;;;;;10.30;4.80;;;;;;;4.52;79.91;98051.30;115120;1199;26423;-88
2021/10/24 04:48:25;;;;;;;9.10;4.40;;;;;;;4.52;79.90;98061.73;115477;1199;27645;-88
2021/10/24 04:50:53;;;;;;;8.30;4.80;;;;;;;4.51;79.99;98064.96;115493;1184;25686;-89
2021/10/24 04:53:23;;;;;;;14.20;4.90;;;;;;;4.52;80.12;98065.40;115475;1199;26559;-89
2021/10/24 04:55:53;;;;;;;11.70;4.60;;;;;;;4.53;80.08;98069.16;115478;1192;28122;-90
2021/10/24 04:58:21;;;;;;;12.90;4.70;;;;;;;4.52;80.08;98067.98;115480;1199;36398;-90
2021/10/24 05:00:49;;;;;;;13.10;5.00;;;;;;;4.49;80.12;98066.96;115459;1192;35755;-90
2021/10/24 05:03:17;;;;;;;11.90;5.40;;;;;;;4.45;80.27;98069.02;115405;1199;33193;-90
2021/10/24 05:05:47;;;;;;;10.30;5.20;;;;;;;4.43;80.42;98075.05;115283;1191;28954;-89
2021/10/24 05:08:15;;;;;;;11.50;5.10;;;;;;;4.44;80.35;98075.21;115449;1199;28472;-90
2021/10/24 05:10:44;;;;;;;10.40;4.60;;;;;;;4.44;80.49;98066.20;115433;1199;26239;-89
2021/10/24 05:13:12;;;;;;;11.10;4.70;;;;;;;4.45;80.77;98068.34;115447;1199;26717;-90
2021/10/24 05:15:40;;;;;;;12.40;5.20;;;;;;;4.47;80.75;98066.16;115429;1199;26000;-89
2021/10/24 05:18:08;;;;;;;10.30;4.80;;;;;;;4.51;80.72;98068.19;115426;1199;27133;-89
2021/10/24 05:20:37;;;;;;;14.50;5.10;;;;;;;4.51;80.60;98075.27;115383;1199;27061;-90
2021/10/24 05:23:05;;;;;;;11.40;5.20;;;;;;;4.52;80.69;98075.95;115388;1177;28027;-89
2021/10/24 05:25:33;;;;;;;10.00;4.50;;;;;;;4.52;80.89;98070.62;115441;1199;27259;-89
2021/10/24 05:28:02;;;;;;;10.40;5.00;;;;;;;4.54;80.95;98076.35;115401;1184;26791;-89
2021/10/24 05:30:30;;;;;;;12.40;4.60;;;;;;;4.54;80.88;98080.39;115374;1199;28033;-89
2021/10/24 05:32:58;;;;;;;11.70;4.60;;;;;;;4.54;80.86;98084.79;115445;1199;26660;-88
2021/10/24 05:35:26;;;;;;;6.90;4.60;;;;;;;4.53;80.84;98084.92;115402;1199;27123;-89
2021/10/24 05:37:55;;;;;;;8.70;4.50;;;;;;;4.52;80.94;98090.45;115391;1199;26417;-89
2021/10/24 05:40:23;;;;;;;13.40;5.30;;;;;;;4.53;81.02;98090.17;115468;1192;28048;-89
2021/10/24 05:42:52;;;;;;;10.90;4.30;;;;;;;4.55;80.93;98094.23;115424;1199;27111;-89
2021/10/24 05:45:20;;;;;;;10.60;4.60;;;;;;;4.54;80.89;98101.71;115500;1199;28339;-90
2021/10/24 05:47:48;;;;;;;9.40;4.50;;;;;;;4.53;81.16;98109.36;115507;1199;29161;-89
2021/10/24 05:50:16;;;;;;;7.30;4.00;;;;;;;4.51;81.19;98105.09;115426;1199;27297;-89
2021/10/24 05:52:45;;;;;;;14.00;5.10;;;;;;;4.53;81.21;98115.75;115291;1199;28630;-88
2021/10/24 05:55:13;;;;;;;12.40;4.40;;;;;;;4.52;81.26;98112.40;115363;1199;30868;-89
2021/10/24 05:57:41;;;;;;;11.80;4.00;;;;;;;4.49;81.43;98113.13;115418;1199;27806;-89
2021/10/24 06:00:12;;;;;;;6.40;3.90;;;;;;;4.47;81.40;98117.77;115560;1192;25796;-89
2021/10/24 06:14:18;;;;;;;9.60;3.80;;;;;;;4.83;81.26;98129.36;113185;1216;557468;-80
2021/10/24 06:16:49;;;;;;;9.40;4.30;;;;;;;4.91;81.22;98136.88;115137;1201;29775;-80
2021/10/24 06:19:20;;;;;;;10.00;4.50;;;;;;;4.91;81.28;98135.82;115116;1201;34855;-80
2021/10/24 06:21:51;;;;;;;10.30;5.40;;;;;;;4.93;81.22;98135.89;115143;1201;28006;-81
2021/10/24 06:24:22;;;;;;;11.80;5.70;;;;;;;4.95;81.23;98134.84;115136;1201;29345;-80
2021/10/24 06:26:53;;;;;;;69.30;29.80;;;;;;;4.97;81.16;98138.91;115192;1201;27411;-80
2021/10/24 06:29:24;;;;;;;26.90;11.60;;;;;;;4.98;81.27;98138.86;115302;1201;28220;-80
2021/10/24 06:31:55;;;;;;;23.00;8.30;;;;;;;5.02;81.25;98138.52;115279;1201;36272;-80
2021/10/24 06:34:26;;;;;;;16.60;7.20;;;;;;;5.07;81.01;98144.38;115754;1197;30039;-80
2021/10/24 06:36:57;;;;;;;10.50;4.90;;;;;;;5.15;80.94;98150.15;115705;1198;30645;-81
2021/10/24 06:39:28;;;;;;;17.10;6.50;;;;;;;5.24;80.79;98150.98;115714;1197;34862;-80
2021/10/24 06:41:59;;;;;;;12.40;4.70;;;;;;;5.33;80.62;98153.22;115726;1197;27225;-81
2021/10/24 06:44:30;;;;;;;11.10;4.40;;;;;;;5.42;80.27;98160.69;115792;1197;28758;-81
2021/10/24 06:47:01;;;;;;;12.40;4.20;;;;;;;5.47;79.93;98165.15;115738;1198;29659;-80
2021/10/24 06:49:32;;;;;;;7.90;3.80;;;;;;;5.49;79.85;98171.42;115724;1198;27397;-81
2021/10/24 06:52:05;;;;;;;11.80;4.40;;;;;;;5.51;79.74;98165.52;115121;1192;26011;-80
2021/10/24 06:54:36;;;;;;;10.50;4.30;;;;;;;5.55;79.53;98168.73;115712;1192;43088;-80
2021/10/24 06:57:08;;;;;;;11.30;3.90;;;;;;;5.60;79.39;98171.59;115725;1197;42636;-80
2021/10/24 06:59:42;;;;;;;8.70;3.80;;;;;;;5.65;79.22;98169.23;115744;1197;29150;-81
2021/10/24 07:02:13;;;;;;;10.70;4.40;;;;;;;5.66;79.00;98172.36;115769;1198;49717;-80
2021/10/24 07:04:44;;;;;;;9.60;3.90;;;;;;;5.68;79.06;98176.30;115743;1198;29564;-79
2021/10/24 07:07:14;;;;;;;11.60;3.90;;;;;;;5.72;78.96;98182.03;115711;1190;33287;-80
2021/10/24 07:09:45;;;;;;;12.60;4.00;;;;;;;5.77;79.00;98175.05;115709;1197;30186;-81
2021/10/24 07:12:16;;;;;;;10.50;4.40;;;;;;;5.81;78.88;98173.17;115782;1198;32910;-81
2021/10/24 07:14:47;;;;;;;8.20;3.80;;;;;;;5.87;78.81;98171.40;115734;1192;27130;-80
2021/10/24 07:17:18;;;;;;;9.20;3.70;;;;;;;5.94;78.76;98169.38;115687;1198;30051;-80
2021/10/24 07:19:48;;;;;;;11.60;4.50;;;;;;;6.07;78.69;98167.41;115727;1198;36769;-80
2021/10/24 07:22:19;;;;;;;9.30;3.80;;;;;;;6.26;78.38;98166.36;115703;1198;38069;-80
2021/10/24 07:24:50;;;;;;;12.20;4.80;;;;;;;6.45;77.92;98167.94;115784;1198;28935;-80
2021/10/24 07:27:21;;;;;;;6.40;3.50;;;;;;;6.54;77.32;98170.88;115743;1193;33470;-80
2021/10/24 07:29:52;;;;;;;9.10;4.20;;;;;;;6.65;77.27;98171.27;115736;1193;43340;-80
2021/10/24 07:32:23;;;;;;;;;;;;;;;6.72;76.81;98171.92;115766;1197;31844;-80
2021/10/24 07:34:56;;;;;;;4.50;3.00;;;;;;;6.89;77.03;98174.55;115702;1198;34741;-80
2021/10/24 07:37:27;;;;;;;7.40;3.70;;;;;;;7.11;76.92;98175.70;115654;1198;34234;-80
2021/10/24 07:39:58;;;;;;;11.30;4.10;;;;;;;7.16;76.01;98171.42;115723;1198;31905;-80
2021/10/24 07:42:29;;;;;;;7.80;3.60;;;;;;;7.68;76.07;98177.29;115728;1198;27813;-80
2021/10/24 07:45:01;;;;;;;10.60;3.70;;;;;;;8.12;75.25;98184.75;115748;1197;34793;-80
2021/10/24 07:47:32;;;;;;;7.00;3.20;;;;;;;8.74;74.63;98180.98;115780;1198;37197;-80
2021/10/24 07:50:05;;;;;;;11.00;3.00;;;;;;;9.14;72.32;98178.39;115753;1198;27275;-81
2021/10/24 07:52:36;;;;;;;9.40;3.00;;;;;;;9.40;71.87;98178.77;115752;1198;45856;-80
2021/10/24 07:55:08;;;;;;;9.50;3.20;;;;;;;9.63;70.35;98172.73;115704;1198;28907;-80
2021/10/24 07:57:39;;;;;;;7.90;2.90;;;;;;;9.72;69.52;98173.98;115741;1197;28035;-80
2021/10/24 08:00:11;;;;;;;7.20;2.50;;;;;;;9.90;69.37;98169.88;115720;1198;30513;-80
2021/10/24 08:02:43;;;;;;;8.40;2.70;;;;;;;10.05;69.09;98166.94;115760;1190;31526;-80
2021/10/24 08:05:13;;;;;;;7.70;2.70;;;;;;;10.12;68.25;98168.98;115679;1198;27773;-78
2021/10/24 08:07:44;;;;;;;7.10;3.00;;;;;;;10.10;67.08;98165.19;115798;1198;36068;-78
2021/10/24 08:10:17;;;;;;;10.10;3.10;;;;;;;9.85;66.24;98164.91;115749;1198;34972;-78
2021/10/24 08:12:48;;;;;;;11.10;2.90;;;;;;;9.66;66.42;98173.80;115635;1198;40724;-80
2021/10/24 08:15:20;;;;;;;10.20;3.20;;;;;;;9.70;67.14;98173.89;115682;1198;27014;-82
2021/10/24 08:17:51;;;;;;;7.10;3.10;;;;;;;9.75;67.23;98176.70;115660;1190;25715;-81
2021/10/24 08:20:22;;;;;;;8.10;2.90;;;;;;;9.93;67.62;98173.69;115630;1198;31542;-80
2021/10/24 08:22:53;;;;;;;7.60;2.70;;;;;;;10.02;66.89;98178.30;115627;1190;30930;-81
2021/10/24 08:25:26;;;;;;;9.10;2.50;;;;;;;10.11;66.40;98180.71;115640;1190;32025;-81
2021/10/24 08:27:59;;;;;;;8.50;2.80;;;;;;;10.06;65.41;98179.15;115653;1198;25717;-82
2021/10/24 08:30:30;;;;;;;7.10;2.50;;;;;;;9.97;65.42;98180.67;115633;1190;24324;-80
2021/10/24 08:33:02;;;;;;;5.30;2.20;;;;;;;9.98;65.21;98179.04;115681;1190;30517;-80
2021/10/24 08:35:33;;;;;;;7.20;2.40;;;;;;;10.06;64.27;98181.23;115640;1198;30803;-81
2021/10/24 08:38:04;;;;;;;6.30;2.20;;;;;;;10.15;64.56;98184.11;115580;1199;26519;-81
2021/10/24 08:40:35;;;;;;;5.50;1.80;;;;;;;10.20;63.26;98187.63;115659;1198;24560;-81
2021/10/24 08:43:14;;;;;;;8.20;1.80;;;;;;;10.33;64.03;98186.36;115646;1198;28183;-81
2021/10/24 08:45:46;;;;;;;9.40;2.40;;;;;;;10.51;63.88;98188.75;115710;1198;25830;-81
2021/10/24 08:48:18;;;;;;;8.30;2.10;;;;;;;10.49;63.34;98190.84;115690;1198;25018;-82
2021/10/24 08:50:50;;;;;;;6.20;2.20;;;;;;;10.33;62.91;98195.11;115778;1194;29441;-81
2021/10/24 08:53:25;;;;;;;6.50;2.10;;;;;;;10.26;62.69;98199.26;115781;1190;27655;-81
2021/10/24 08:55:57;;;;;;;7.10;1.90;;;;;;;10.06;61.48;98205.44;115872;1196;25004;-81
2021/10/24 08:58:28;;;;;;;5.50;1.80;;;;;;;9.86;61.22;98208.64;115769;1196;28503;-81
2021/10/24 09:00:58;;;;;;;6.60;1.60;;;;;;;9.71;60.49;98210.30;115771;1196;26505;-81
2021/10/24 09:03:29;;;;;;;4.80;1.90;;;;;;;9.42;60.15;98215.44;115877;1196;26654;-81
2021/10/24 09:06:00;;;;;;;4.70;1.70;;;;;;;9.14;60.57;98219.66;115767;1190;29800;-81
2021/10/24 09:08:31;;;;;;;7.10;1.80;;;;;;;8.99;61.05;98217.02;115754;1196;28336;-81
2021/10/24 09:11:06;;;;;;;5.90;1.80;;;;;;;8.93;61.38;98215.57;115796;1196;28233;-81
2021/10/24 09:13:39;;;;;;;3.90;1.80;;;;;;;8.90;61.01;98219.20;115784;1196;31461;-81
2021/10/24 09:16:14;;;;;;;6.30;2.10;;;;;;;8.78;61.11;98223.09;115762;1196;26998;-81
2021/10/24 09:18:45;;;;;;;3.30;1.50;;;;;;;8.68;61.07;98228.31;115751;1196;32586;-81
2021/10/24 09:21:25;;;;;;;3.00;1.70;;;;;;;8.73;61.90;98230.73;115767;1196;29653;-80
2021/10/24 09:24:13;;;;;;;4.70;1.70;;;;;;;8.77;61.51;98236.17;115773;1190;34214;-81
2021/10/24 09:26:44;;;;;;;5.10;1.90;;;;;;;8.75;62.02;98238.35;115830;1189;28636;-81
2021/10/24 09:29:16;;;;;;;5.40;1.90;;;;;;;8.84;61.74;98240.79;115842;1196;26746;-80
2021/10/24 09:31:52;;;;;;;6.50;2.40;;;;;;;8.83;61.49;98239.48;115812;1190;26322;-82
2021/10/24 09:34:25;;;;;;;4.30;1.50;;;;;;;8.81;61.32;98246.31;115785;1196;26575;-81
2021/10/24 09:36:58;;;;;;;7.60;1.90;;;;;;;8.81;61.18;98246.38;115803;1196;25385;-81
2021/10/24 09:39:30;;;;;;;3.30;1.70;;;;;;;8.73;60.96;98242.16;115673;1198;28002;-82
2021/10/24 09:42:16;;;;;;;8.00;1.80;;;;;;;8.65;61.18;98237.67;115788;1197;26376;-81
2021/10/24 09:45:06;;;;;;;6.50;1.90;;;;;;;8.63;61.38;98236.94;115824;1190;27741;-80
2021/10/24 09:47:39;;;;;;;5.80;2.70;;;;;;;8.60;61.38;98233.36;115793;1195;28565;-80
2021/10/24 09:50:27;;;;;;;8.90;2.40;;;;;;;8.54;61.18;98232.10;115858;1196;31059;-81
2021/10/24 09:53:12;;;;;;;5.20;1.90;;;;;;;8.53;61.41;98228.77;115804;1196;26900;-81
2021/10/24 09:55:45;;;;;;;5.30;1.70;;;;;;;8.48;61.26;98231.42;115909;1196;27972;-81
2021/10/24 09:58:17;;;;;;;5.90;1.70;;;;;;;8.44;61.21;98230.92;115746;1196;45382;-80
2021/10/24 10:00:48;;;;;;;5.70;1.70;;;;;;;8.53;61.54;98232.08;115762;1196;31715;-80
2021/10/24 10:03:20;;;;;;;4.60;1.60;;;;;;;8.50;60.77;98232.95;115771;1190;27816;-80
2021/10/24 10:05:51;;;;;;;2.50;1.40;;;;;;;8.46;61.00;98233.16;115743;1196;25940;-81
2021/10/24 10:08:23;;;;;;;3.50;2.00;;;;;;;8.40;61.17;98231.23;115664;1196;30231;-81
2021/10/24 10:10:56;;;;;;;5.10;1.80;;;;;;;8.39;61.10;98231.58;115794;1189;27447;-82
2021/10/24 10:13:28;;;;;;;6.40;1.70;;;;;;;8.53;61.75;98229.91;115824;1192;25010;-80
2021/10/24 10:16:07;;;;;;;2.70;1.90;;;;;;;8.84;62.11;98227.89;115790;1196;23191;-81
2021/10/24 10:19:06;;;;;;;5.30;1.80;;;;;;;9.16;62.11;98228.02;115878;1196;27100;-80
2021/10/24 10:21:42;;;;;;;4.60;2.00;;;;;;;9.51;60.57;98219.14;115676;1190;27622;-81
2021/10/24 10:24:46;;;;;;;6.20;1.70;;;;;;;9.56;59.06;98214.95;115838;1196;28264;-81
2021/10/24 10:27:39;;;;;;;7.10;1.90;;;;;;;9.57;59.14;98220.38;115787;1196;32291;-80
2021/10/24 10:30:15;;;;;;;4.20;1.80;;;;;;;9.67;58.80;98217.71;115813;1184;28992;-81
2021/10/24 10:32:48;;;;;;;3.80;2.10;;;;;;;9.59;58.05;98218.71;115779;1196;28910;-80
2021/10/24 10:35:21;;;;;;;7.20;3.60;;;;;;;9.41;57.99;98222.94;115628;1196;120626;-81
2021/10/24 10:37:55;;;;;;;8.20;2.50;;;;;;;9.29;58.34;98218.80;115797;1196;29595;-82
2021/10/24 10:40:29;;;;;;;6.60;2.80;;;;;;;9.20;58.66;98216.80;115692;1196;34068;-81
2021/10/24 10:43:06;;;;;;;5.90;2.70;;;;;;;9.16;58.34;98214.64;115700;1197;29930;-81
2021/10/24 10:45:48;;;;;;;5.90;2.30;;;;;;;9.12;58.35;98208.77;115723;1196;29706;-82
2021/10/24 10:48:48;;;;;;;3.20;1.80;;;;;;;8.99;58.21;98211.58;115763;1196;29041;-82
2021/10/24 10:51:23;;;;;;;;;;;;;;;8.80;57.97;98209.70;115516;1193;28707;-80
2021/10/24 10:54:04;;;;;;;5.60;3.20;;;;;;;8.65;58.27;98208.02;115717;1196;27354;-81
2021/10/24 10:56:44;;;;;;;7.20;2.30;;;;;;;8.56;58.45;98209.21;115749;1196;35110;-81
2021/10/24 10:59:33;;;;;;;3.80;1.60;;;;;;;8.45;58.32;98208.43;115824;1196;26765;-81
2021/10/24 11:02:23;;;;;;;8.30;4.90;;;;;;;8.36;58.36;98212.91;115778;1196;31012;-80
2021/10/24 11:04:56;;;;;;;4.30;1.70;;;;;;;8.31;58.39;98211.08;115755;1196;26997;-81
2021/10/24 11:07:42;;;;;;;5.00;1.70;;;;;;;8.30;58.70;98207.27;115794;1196;29213;-81
2021/10/24 11:10:18;;;;;;;5.30;1.60;;;;;;;8.29;59.26;98210.11;115847;1196;28694;-81
2021/10/24 11:12:51;;;;;;;6.60;2.30;;;;;;;8.28;59.69;98212.57;115796;1196;37279;-82
2021/10/24 11:15:32;;;;;;;4.60;2.00;;;;;;;8.34;60.22;98211.21;115719;1196;50204;-82
2021/10/24 11:18:05;;;;;;;3.00;1.90;;;;;;;8.48;60.35;98210.42;115830;1195;41488;-88
2021/10/24 11:20:47;;;;;;;6.20;1.90;;;;;;;8.53;60.25;98207.96;115411;1190;31425;-86
2021/10/24 11:23:20;;;;;;;4.50;1.90;;;;;;;8.53;59.81;98206.41;115745;1190;32604;-86
2021/10/24 11:25:54;;;;;;;4.90;1.60;;;;;;;8.49;59.32;98204.44;115743;1196;28380;-82
2021/10/24 11:28:31;;;;;;;4.30;1.60;;;;;;;8.47;58.80;98203.38;115752;1196;42770;-84
2021/10/24 11:31:07;;;;;;;5.80;1.80;;;;;;;8.48;59.09;98207.84;115742;1190;51143;-83
2021/10/24 11:33:50;;;;;;;5.70;2.00;;;;;;;8.47;59.10;98203.86;115805;1190;27763;-81
2021/10/24 11:36:30;;;;;;;3.00;1.40;;;;;;;8.47;59.22;98200.41;115818;1196;25094;-81
2021/10/24 11:39:04;;;;;;;3.90;1.60;;;;;;;8.46;59.07;98198.48;115824;1196;25012;-83
2021/10/24 11:41:36;;;;;;;5.70;2.50;;;;;;;8.44;59.11;98198.66;115761;1196;24918;-82
2021/10/24 11:44:11;;;;;;;6.10;2.70;;;;;;;8.41;58.68;98198.16;115806;1196;25961;-83
2021/10/24 11:46:43;;;;;;;4.40;1.50;;;;;;;8.34;59.17;98195.41;115807;1196;33192;-82
2021/10/24 11:49:13;;;;;;;5.80;1.60;;;;;;;8.41;59.14;98195.04;115762;1196;31561;-81
2021/10/24 11:51:55;;;;;;;4.40;1.50;;;;;;;8.52;58.47;98193.34;115794;1196;28915;-81
2021/10/24 11:54:26;;;;;;;4.60;1.60;;;;;;;8.49;58.31;98191.84;115745;1196;37942;-82
2021/10/24 11:57:27;;;;;;;5.30;1.50;;;;;;;8.56;58.32;98184.89;115774;1197;27108;-81
2021/10/24 12:00:20;;;;;;;4.80;1.80;;;;;;;8.79;58.11;98180.95;115763;1197;37413;-81